Webberville, Michigan
Current Conditions -  °F | °C
As of 4:35 PM on Saturday 25 Oct 2014 (Local Time) from KOZW Reporting Station
Clear Clear  
Wind Chill: 65°   Ceiling: Unl
Heat Index: 65°   Visibility: 10mi
Dew Point: 30°   Wind: 26mph
Humidity: 26%   Direction: 270°W
Pressure: 29.75"   Gusts: 32mph
Location:  42.67°N, 84.17°W
Report Text: KOZW 252035Z AUTO 27023G28KT 10SM CLR 19/M01 A2975 RMK AO2 T01851013
Loading
Personal Weather Stations






























Interactive Weather Map
Tropical Storm Tracking
New forecast layout! Learn more

10-Day Weather Forecast

Advertisements
Track Severe Weather on mobile